sensor_id;sensor_type;location;lat;lon;timestamp;temperature;humidity
18317;DHT22;9284;52.298;21.164;2023-05-29T00:01:46;7.50;1.00
18317;DHT22;9284;52.298;21.164;2023-05-29T00:04:20;7.50;99.90
18317;DHT22;9284;52.298;21.164;2023-05-29T00:06:52;7.40;99.90
18317;DHT22;9284;52.298;21.164;2023-05-29T00:09:26;7.50;99.90
18317;DHT22;9284;52.298;21.164;2023-05-29T00:11:58;7.40;99.90
18317;DHT22;9284;52.298;21.164;2023-05-29T00:14:32;7.30;1.00
18317;DHT22;9284;52.298;21.164;2023-05-29T00:17:04;7.40;99.90
18317;DHT22;9284;52.298;21.164;2023-05-29T00:19:34;7.30;99.90
18317;DHT22;9284;52.298;21.164;2023-05-29T00:22:03;7.20;1.00
18317;DHT22;9284;52.298;21.164;2023-05-29T00:24:32;7.30;1.00
18317;DHT22;9284;52.298;21.164;2023-05-29T00:27:03;7.20;1.00
18317;DHT22;9284;52.298;21.164;2023-05-29T00:29:34;7.10;1.00
18317;DHT22;9284;52.298;21.164;2023-05-29T00:32:07;7.00;1.00
18317;DHT22;9284;52.298;21.164;2023-05-29T00:34:36;7.10;99.90
18317;DHT22;9284;52.298;21.164;2023-05-29T00:37:09;7.10;99.90
18317;DHT22;9284;52.298;21.164;2023-05-29T00:39:39;7.00;99.90
18317;DHT22;9284;52.298;21.164;2023-05-29T00:42:08;7.00;19.90
18317;DHT22;9284;52.298;21.164;2023-05-29T00:44:45;7.00;38.80
18317;DHT22;9284;52.298;21.164;2023-05-29T00:47:17;7.00;99.90
18317;DHT22;9284;52.298;21.164;2023-05-29T00:49:46;7.00;40.00
18317;DHT22;9284;52.298;21.164;2023-05-29T00:52:19;6.90;90.00
18317;DHT22;9284;52.298;21.164;2023-05-29T00:54:51;6.90;26.80
18317;DHT22;9284;52.298;21.164;2023-05-29T00:57:32;6.90;99.90
18317;DHT22;9284;52.298;21.164;2023-05-29T01:00:06;6.80;99.90
18317;DHT22;9284;52.298;21.164;2023-05-29T01:02:37;6.80;99.90
18317;DHT22;9284;52.298;21.164;2023-05-29T01:05:09;6.80;99.90
18317;DHT22;9284;52.298;21.164;2023-05-29T01:07:38;6.80;1.00
18317;DHT22;9284;52.298;21.164;2023-05-29T01:10:22;6.80;1.00
18317;DHT22;9284;52.298;21.164;2023-05-29T01:12:57;6.80;1.00
18317;DHT22;9284;52.298;21.164;2023-05-29T01:15:35;6.80;1.00
18317;DHT22;9284;52.298;21.164;2023-05-29T01:18:16;6.80;1.00
18317;DHT22;9284;52.298;21.164;2023-05-29T01:21:00;6.80;1.00
18317;DHT22;9284;52.298;21.164;2023-05-29T01:24:00;6.60;1.00
18317;DHT22;9284;52.298;21.164;2023-05-29T01:26:58;6.50;1.00
18317;DHT22;9284;52.298;21.164;2023-05-29T01:29:34;6.60;99.90
18317;DHT22;9284;52.298;21.164;2023-05-29T01:32:06;6.50;99.90
18317;DHT22;9284;52.298;21.164;2023-05-29T01:34:38;6.50;1.00
18317;DHT22;9284;52.298;21.164;2023-05-29T01:37:07;6.50;1.00
18317;DHT22;9284;52.298;21.164;2023-05-29T01:39:38;6.40;1.00
18317;DHT22;9284;52.298;21.164;2023-05-29T01:42:09;6.40;1.00
18317;DHT22;9284;52.298;21.164;2023-05-29T01:44:40;6.40;1.00
18317;DHT22;9284;52.298;21.164;2023-05-29T01:47:21;6.40;1.00
18317;DHT22;9284;52.298;21.164;2023-05-29T01:49:58;6.40;1.00
18317;DHT22;9284;52.298;21.164;2023-05-29T01:52:28;6.50;1.00
18317;DHT22;9284;52.298;21.164;2023-05-29T01:55:02;6.30;1.00
18317;DHT22;9284;52.298;21.164;2023-05-29T01:57:33;6.30;1.00
18317;DHT22;9284;52.298;21.164;2023-05-29T02:00:07;6.20;1.00
18317;DHT22;9284;52.298;21.164;2023-05-29T02:02:44;6.10;1.00
18317;DHT22;9284;52.298;21.164;2023-05-29T02:05:16;6.10;99.90
18317;DHT22;9284;52.298;21.164;2023-05-29T02:07:47;6.00;99.90
18317;DHT22;9284;52.298;21.164;2023-05-29T02:10:16;6.10;1.00
18317;DHT22;9284;52.298;21.164;2023-05-29T02:12:47;6.20;1.00
18317;DHT22;9284;52.298;21.164;2023-05-29T02:15:16;6.20;1.00
18317;DHT22;9284;52.298;21.164;2023-05-29T02:17:45;6.10;99.90
18317;DHT22;9284;52.298;21.164;2023-05-29T02:20:14;6.10;1.00
18317;DHT22;9284;52.298;21.164;2023-05-29T02:22:44;6.10;1.00
18317;DHT22;9284;52.298;21.164;2023-05-29T02:25:19;6.00;1.00
18317;DHT22;9284;52.298;21.164;2023-05-29T02:27:53;6.00;1.00
18317;DHT22;9284;52.298;21.164;2023-05-29T02:30:32;6.10;1.00
18317;DHT22;9284;52.298;21.164;2023-05-29T02:33:02;6.00;1.00
18317;DHT22;9284;52.298;21.164;2023-05-29T02:35:33;5.90;1.00
18317;DHT22;9284;52.298;21.164;2023-05-29T02:38:09;6.10;1.00
18317;DHT22;9284;52.298;21.164;2023-05-29T02:40:40;6.00;1.00
18317;DHT22;9284;52.298;21.164;2023-05-29T02:43:14;5.90;17.20
18317;DHT22;9284;52.298;21.164;2023-05-29T02:45:45;5.90;49.80
18317;DHT22;9284;52.298;21.164;2023-05-29T02:48:16;5.90;1.00
18317;DHT22;9284;52.298;21.164;2023-05-29T02:50:45;5.90;1.00
18317;DHT22;9284;52.298;21.164;2023-05-29T02:53:16;6.10;1.00
18317;DHT22;9284;52.298;21.164;2023-05-29T02:55:45;6.00;1.00
18317;DHT22;9284;52.298;21.164;2023-05-29T02:58:16;6.00;1.00
18317;DHT22;9284;52.298;21.164;2023-05-29T03:00:48;6.00;1.00
18317;DHT22;9284;52.298;21.164;2023-05-29T03:03:18;6.00;1.00
18317;DHT22;9284;52.298;21.164;2023-05-29T03:05:53;6.00;1.00
18317;DHT22;9284;52.298;21.164;2023-05-29T03:08:24;6.00;99.90
18317;DHT22;9284;52.298;21.164;2023-05-29T03:10:58;6.10;1.00
18317;DHT22;9284;52.298;21.164;2023-05-29T03:13:28;6.10;99.90
18317;DHT22;9284;52.298;21.164;2023-05-29T03:16:03;6.10;99.90
18317;DHT22;9284;52.298;21.164;2023-05-29T03:18:34;6.10;99.90
18317;DHT22;9284;52.298;21.164;2023-05-29T03:21:03;6.10;99.90
18317;DHT22;9284;52.298;21.164;2023-05-29T03:23:33;6.20;99.90
18317;DHT22;9284;52.298;21.164;2023-05-29T03:26:06;6.30;99.90
18317;DHT22;9284;52.298;21.164;2023-05-29T03:28:44;6.30;99.90
18317;DHT22;9284;52.298;21.164;2023-05-29T03:31:17;6.50;1.00
18317;DHT22;9284;52.298;21.164;2023-05-29T03:33:46;6.60;99.90
18317;DHT22;9284;52.298;21.164;2023-05-29T03:36:31;6.70;1.00
18317;DHT22;9284;52.298;21.164;2023-05-29T03:39:04;6.80;1.00
18317;DHT22;9284;52.298;21.164;2023-05-29T03:41:33;6.90;1.00
18317;DHT22;9284;52.298;21.164;2023-05-29T03:44:12;7.00;99.90
18317;DHT22;9284;52.298;21.164;2023-05-29T03:46:43;7.00;99.90
18317;DHT22;9284;52.298;21.164;2023-05-29T03:49:13;7.10;99.90
18317;DHT22;9284;52.298;21.164;2023-05-29T03:51:47;7.20;1.00
18317;DHT22;9284;52.298;21.164;2023-05-29T03:54:18;7.30;1.00
18317;DHT22;9284;52.298;21.164;2023-05-29T03:56:49;7.30;99.90
18317;DHT22;9284;52.298;21.164;2023-05-29T03:59:28;7.40;1.00
18317;DHT22;9284;52.298;21.164;2023-05-29T04:02:04;7.40;1.00
18317;DHT22;9284;52.298;21.164;2023-05-29T04:04:37;7.50;1.00
18317;DHT22;9284;52.298;21.164;2023-05-29T04:07:21;7.60;1.00
18317;DHT22;9284;52.298;21.164;2023-05-29T04:09:52;7.80;99.90
18317;DHT22;9284;52.298;21.164;2023-05-29T04:12:22;7.80;99.90
18317;DHT22;9284;52.298;21.164;2023-05-29T04:14:52;7.90;99.90
18317;DHT22;9284;52.298;21.164;2023-05-29T04:17:24;8.00;1.00
18317;DHT22;9284;52.298;21.164;2023-05-29T04:19:54;8.10;1.00
18317;DHT22;9284;52.298;21.164;2023-05-29T04:22:28;8.20;1.00
18317;DHT22;9284;52.298;21.164;2023-05-29T04:25:10;8.50;1.00
18317;DHT22;9284;52.298;21.164;2023-05-29T04:27:49;8.50;1.00
18317;DHT22;9284;52.298;21.164;2023-05-29T04:30:49;8.60;1.00
18317;DHT22;9284;52.298;21.164;2023-05-29T04:33:24;8.80;99.90
18317;DHT22;9284;52.298;21.164;2023-05-29T04:36:14;9.00;99.90
18317;DHT22;9284;52.298;21.164;2023-05-29T04:38:54;9.10;99.90
18317;DHT22;9284;52.298;21.164;2023-05-29T04:41:25;9.40;99.90
18317;DHT22;9284;52.298;21.164;2023-05-29T04:43:57;9.50;99.90
18317;DHT22;9284;52.298;21.164;2023-05-29T04:46:38;9.60;99.90
18317;DHT22;9284;52.298;21.164;2023-05-29T04:49:15;9.80;40.10
18317;DHT22;9284;52.298;21.164;2023-05-29T04:52:08;10.00;1.00
18317;DHT22;9284;52.298;21.164;2023-05-29T04:55:00;10.10;1.00
18317;DHT22;9284;52.298;21.164;2023-05-29T04:57:40;10.40;99.90
18317;DHT22;9284;52.298;21.164;2023-05-29T05:00:53;10.50;99.90
18317;DHT22;9284;52.298;21.164;2023-05-29T05:03:42;10.70;99.90
18317;DHT22;9284;52.298;21.164;2023-05-29T05:06:56;10.90;99.90
18317;DHT22;9284;52.298;21.164;2023-05-29T05:09:35;11.00;83.70
18317;DHT22;9284;52.298;21.164;2023-05-29T05:12:15;11.20;86.40
18317;DHT22;9284;52.298;21.164;2023-05-29T05:15:26;11.30;99.90
18317;DHT22;9284;52.298;21.164;2023-05-29T05:18:47;11.50;99.90
18317;DHT22;9284;52.298;21.164;2023-05-29T05:21:29;11.70;51.70
18317;DHT22;9284;52.298;21.164;2023-05-29T05:24:16;11.90;80.50
18317;DHT22;9284;52.298;21.164;2023-05-29T05:26:45;12.00;1.00
18317;DHT22;9284;52.298;21.164;2023-05-29T05:29:16;12.20;1.00
18317;DHT22;9284;52.298;21.164;2023-05-29T05:31:45;12.40;1.00
18317;DHT22;9284;52.298;21.164;2023-05-29T05:34:15;12.70;99.90
18317;DHT22;9284;52.298;21.164;2023-05-29T05:36:44;12.90;99.90
18317;DHT22;9284;52.298;21.164;2023-05-29T05:39:14;13.00;99.90
18317;DHT22;9284;52.298;21.164;2023-05-29T05:41:46;13.20;1.00
18317;DHT22;9284;52.298;21.164;2023-05-29T05:44:29;13.50;1.00
18317;DHT22;9284;52.298;21.164;2023-05-29T05:47:04;13.80;1.00
18317;DHT22;9284;52.298;21.164;2023-05-29T05:49:34;14.10;1.00
18317;DHT22;9284;52.298;21.164;2023-05-29T05:52:03;14.30;1.00
18317;DHT22;9284;52.298;21.164;2023-05-29T05:54:31;14.60;1.00
18317;DHT22;9284;52.298;21.164;2023-05-29T05:57:03;14.80;99.90
18317;DHT22;9284;52.298;21.164;2023-05-29T05:59:32;14.90;99.90
18317;DHT22;9284;52.298;21.164;2023-05-29T06:02:03;15.10;99.90
18317;DHT22;9284;52.298;21.164;2023-05-29T06:04:37;15.30;99.90
18317;DHT22;9284;52.298;21.164;2023-05-29T06:07:10;15.60;99.90
18317;DHT22;9284;52.298;21.164;2023-05-29T06:09:38;15.80;99.90
18317;DHT22;9284;52.298;21.164;2023-05-29T06:12:08;16.10;99.90
18317;DHT22;9284;52.298;21.164;2023-05-29T06:14:44;16.60;99.90
18317;DHT22;9284;52.298;21.164;2023-05-29T06:17:47;17.80;99.90
18317;DHT22;9284;52.298;21.164;2023-05-29T06:24:48;20.30;99.90
18317;DHT22;9284;52.298;21.164;2023-05-29T06:28:43;21.40;99.90
18317;DHT22;9284;52.298;21.164;2023-05-29T06:31:34;22.50;99.90
18317;DHT22;9284;52.298;21.164;2023-05-29T06:34:04;23.20;99.90
18317;DHT22;9284;52.298;21.164;2023-05-29T06:39:22;23.40;99.90
18317;DHT22;9284;52.298;21.164;2023-05-29T06:42:07;23.30;99.90
18317;DHT22;9284;52.298;21.164;2023-05-29T06:44:45;23.50;99.90
18317;DHT22;9284;52.298;21.164;2023-05-29T06:47:46;24.40;99.90
18317;DHT22;9284;52.298;21.164;2023-05-29T06:50:18;25.00;99.90
18317;DHT22;9284;52.298;21.164;2023-05-29T06:52:52;25.50;99.90
18317;DHT22;9284;52.298;21.164;2023-05-29T06:55:48;24.60;99.90
18317;DHT22;9284;52.298;21.164;2023-05-29T06:58:26;24.60;99.90
18317;DHT22;9284;52.298;21.164;2023-05-29T07:01:17;24.80;99.90
18317;DHT22;9284;52.298;21.164;2023-05-29T07:04:10;24.30;99.90
18317;DHT22;9284;52.298;21.164;2023-05-29T07:06:52;25.10;99.90
18317;DHT22;9284;52.298;21.164;2023-05-29T07:09:52;26.20;99.90
18317;DHT22;9284;52.298;21.164;2023-05-29T07:12:28;26.80;99.90
18317;DHT22;9284;52.298;21.164;2023-05-29T07:15:12;26.80;99.90
18317;DHT22;9284;52.298;21.164;2023-05-29T07:17:57;26.30;99.90
18317;DHT22;9284;52.298;21.164;2023-05-29T07:20:33;26.50;99.90
18317;DHT22;9284;52.298;21.164;2023-05-29T07:23:14;26.90;99.90
18317;DHT22;9284;52.298;21.164;2023-05-29T07:25:53;27.00;99.90
18317;DHT22;9284;52.298;21.164;2023-05-29T07:28:30;26.40;99.90
18317;DHT22;9284;52.298;21.164;2023-05-29T07:31:03;26.60;99.90
18317;DHT22;9284;52.298;21.164;2023-05-29T07:33:40;26.90;99.90
18317;DHT22;9284;52.298;21.164;2023-05-29T07:36:09;26.50;99.90
18317;DHT22;9284;52.298;21.164;2023-05-29T07:38:44;27.00;99.90
18317;DHT22;9284;52.298;21.164;2023-05-29T07:41:31;25.80;99.90
18317;DHT22;9284;52.298;21.164;2023-05-29T07:44:26;26.00;99.90
18317;DHT22;9284;52.298;21.164;2023-05-29T07:47:29;26.40;99.90
18317;DHT22;9284;52.298;21.164;2023-05-29T07:50:29;26.60;99.90
18317;DHT22;9284;52.298;21.164;2023-05-29T07:53:33;25.60;99.90
18317;DHT22;9284;52.298;21.164;2023-05-29T07:56:31;26.00;99.90
18317;DHT22;9284;52.298;21.164;2023-05-29T08:02:23;27.10;99.90
18317;DHT22;9284;52.298;21.164;2023-05-29T08:05:29;26.40;99.90
18317;DHT22;9284;52.298;21.164;2023-05-29T08:08:08;26.90;99.90
18317;DHT22;9284;52.298;21.164;2023-05-29T08:11:06;27.00;99.90
18317;DHT22;9284;52.298;21.164;2023-05-29T08:13:47;27.00;99.90
18317;DHT22;9284;52.298;21.164;2023-05-29T08:16:24;27.00;99.90
18317;DHT22;9284;52.298;21.164;2023-05-29T08:19:00;26.90;99.90
18317;DHT22;9284;52.298;21.164;2023-05-29T08:21:37;26.60;99.90
18317;DHT22;9284;52.298;21.164;2023-05-29T08:24:10;26.70;99.90
18317;DHT22;9284;52.298;21.164;2023-05-29T08:26:48;26.60;99.90
18317;DHT22;9284;52.298;21.164;2023-05-29T08:29:28;27.10;99.90
18317;DHT22;9284;52.298;21.164;2023-05-29T08:32:14;27.40;99.90
18317;DHT22;9284;52.298;21.164;2023-05-29T08:34:49;27.10;99.90
18317;DHT22;9284;52.298;21.164;2023-05-29T08:37:21;27.30;99.90
18317;DHT22;9284;52.298;21.164;2023-05-29T08:39:58;26.80;99.90
18317;DHT22;9284;52.298;21.164;2023-05-29T08:42:33;26.80;99.90
18317;DHT22;9284;52.298;21.164;2023-05-29T08:45:13;26.50;99.90
18317;DHT22;9284;52.298;21.164;2023-05-29T08:47:51;26.40;99.90
18317;DHT22;9284;52.298;21.164;2023-05-29T08:50:30;27.10;99.90
18317;DHT22;9284;52.298;21.164;2023-05-29T08:53:05;27.50;99.90
18317;DHT22;9284;52.298;21.164;2023-05-29T08:55:44;27.50;99.90
18317;DHT22;9284;52.298;21.164;2023-05-29T08:58:45;27.50;99.90
18317;DHT22;9284;52.298;21.164;2023-05-29T09:01:56;27.00;99.90
18317;DHT22;9284;52.298;21.164;2023-05-29T09:04:47;27.10;99.90
18317;DHT22;9284;52.298;21.164;2023-05-29T09:10:33;27.50;99.90
18317;DHT22;9284;52.298;21.164;2023-05-29T09:13:17;27.30;99.90
18317;DHT22;9284;52.298;21.164;2023-05-29T09:15:59;27.40;99.90
18317;DHT22;9284;52.298;21.164;2023-05-29T09:18:47;27.80;99.90
18317;DHT22;9284;52.298;21.164;2023-05-29T09:21:26;27.10;99.80
18317;DHT22;9284;52.298;21.164;2023-05-29T09:24:24;27.30;99.90
18317;DHT22;9284;52.298;21.164;2023-05-29T09:26:56;27.00;97.60
18317;DHT22;9284;52.298;21.164;2023-05-29T09:29:30;27.00;98.30
18317;DHT22;9284;52.298;21.164;2023-05-29T09:32:01;27.40;99.90
18317;DHT22;9284;52.298;21.164;2023-05-29T09:34:36;27.60;99.50
18317;DHT22;9284;52.298;21.164;2023-05-29T09:37:23;27.00;99.50
18317;DHT22;9284;52.298;21.164;2023-05-29T09:40:57;26.90;99.20
18317;DHT22;9284;52.298;21.164;2023-05-29T09:44:13;27.00;98.80
18317;DHT22;9284;52.298;21.164;2023-05-29T09:47:53;26.70;98.50
18317;DHT22;9284;52.298;21.164;2023-05-29T09:51:00;26.80;99.00
18317;DHT22;9284;52.298;21.164;2023-05-29T09:54:13;26.70;96.30
18317;DHT22;9284;52.298;21.164;2023-05-29T09:57:45;26.40;98.70
18317;DHT22;9284;52.298;21.164;2023-05-29T10:04:52;26.60;87.80
18317;DHT22;9284;52.298;21.164;2023-05-29T10:08:35;26.70;98.00
18317;DHT22;9284;52.298;21.164;2023-05-29T10:11:35;26.30;93.70
18317;DHT22;9284;52.298;21.164;2023-05-29T10:14:49;26.00;92.90
18317;DHT22;9284;52.298;21.164;2023-05-29T10:18:49;25.80;93.10
18317;DHT22;9284;52.298;21.164;2023-05-29T10:22:27;25.70;95.10
18317;DHT22;9284;52.298;21.164;2023-05-29T10:25:24;25.80;94.40
18317;DHT22;9284;52.298;21.164;2023-05-29T10:28:42;26.30;93.50
18317;DHT22;9284;52.298;21.164;2023-05-29T10:39:04;26.30;94.70
18317;DHT22;9284;52.298;21.164;2023-05-29T10:45:55;25.80;94.20
18317;DHT22;9284;52.298;21.164;2023-05-29T10:48:48;24.90;89.30
18317;DHT22;9284;52.298;21.164;2023-05-29T10:51:49;25.90;92.70
18317;DHT22;9284;52.298;21.164;2023-05-29T10:54:49;25.80;85.10
18317;DHT22;9284;52.298;21.164;2023-05-29T10:57:49;25.30;89.70
18317;DHT22;9284;52.298;21.164;2023-05-29T11:00:54;24.90;84.10
18317;DHT22;9284;52.298;21.164;2023-05-29T11:04:28;25.30;84.50
18317;DHT22;9284;52.298;21.164;2023-05-29T11:07:38;25.80;92.20
18317;DHT22;9284;52.298;21.164;2023-05-29T11:14:06;25.80;91.10
18317;DHT22;9284;52.298;21.164;2023-05-29T11:20:57;25.70;92.00
18317;DHT22;9284;52.298;21.164;2023-05-29T11:24:05;25.90;90.40
18317;DHT22;9284;52.298;21.164;2023-05-29T11:27:29;25.90;91.20
18317;DHT22;9284;52.298;21.164;2023-05-29T11:31:22;25.60;86.10
18317;DHT22;9284;52.298;21.164;2023-05-29T11:34:26;25.40;88.30
18317;DHT22;9284;52.298;21.164;2023-05-29T11:38:33;25.50;91.40
18317;DHT22;9284;52.298;21.164;2023-05-29T11:41:08;24.60;84.10
18317;DHT22;9284;52.298;21.164;2023-05-29T11:44:00;24.70;88.10
18317;DHT22;9284;52.298;21.164;2023-05-29T11:46:32;24.80;92.20
18317;DHT22;9284;52.298;21.164;2023-05-29T11:49:51;24.70;81.80
18317;DHT22;9284;52.298;21.164;2023-05-29T11:52:28;24.80;84.50
18317;DHT22;9284;52.298;21.164;2023-05-29T11:55:20;24.70;81.80
18317;DHT22;9284;52.298;21.164;2023-05-29T11:57:56;25.00;83.10
18317;DHT22;9284;52.298;21.164;2023-05-29T12:03:56;25.20;87.50
18317;DHT22;9284;52.298;21.164;2023-05-29T12:06:46;25.00;84.00
18317;DHT22;9284;52.298;21.164;2023-05-29T12:09:47;24.80;80.40
18317;DHT22;9284;52.298;21.164;2023-05-29T12:13:11;24.30;80.30
18317;DHT22;9284;52.298;21.164;2023-05-29T12:16:06;24.20;79.40
18317;DHT22;9284;52.298;21.164;2023-05-29T12:19:15;23.90;77.70
18317;DHT22;9284;52.298;21.164;2023-05-29T12:21:47;23.60;79.00
18317;DHT22;9284;52.298;21.164;2023-05-29T12:24:30;23.60;75.40
18317;DHT22;9284;52.298;21.164;2023-05-29T12:27:29;23.50;72.20
18317;DHT22;9284;52.298;21.164;2023-05-29T12:30:14;23.20;73.00
18317;DHT22;9284;52.298;21.164;2023-05-29T12:33:16;23.10;75.70
18317;DHT22;9284;52.298;21.164;2023-05-29T12:36:08;23.10;76.30
18317;DHT22;9284;52.298;21.164;2023-05-29T12:39:19;23.20;90.00
18317;DHT22;9284;52.298;21.164;2023-05-29T12:42:43;23.70;76.90
18317;DHT22;9284;52.298;21.164;2023-05-29T12:46:00;23.80;69.40
18317;DHT22;9284;52.298;21.164;2023-05-29T12:55:46;23.60;77.10
18317;DHT22;9284;52.298;21.164;2023-05-29T12:59:22;23.50;75.20
18317;DHT22;9284;52.298;21.164;2023-05-29T13:02:19;23.10;78.60
18317;DHT22;9284;52.298;21.164;2023-05-29T13:05:24;22.90;71.80
18317;DHT22;9284;52.298;21.164;2023-05-29T13:08:13;23.00;71.10
18317;DHT22;9284;52.298;21.164;2023-05-29T13:17:32;23.20;70.60
18317;DHT22;9284;52.298;21.164;2023-05-29T13:20:36;22.90;68.50
18317;DHT22;9284;52.298;21.164;2023-05-29T13:23:28;22.80;68.00
18317;DHT22;9284;52.298;21.164;2023-05-29T13:26:23;22.60;68.10
18317;DHT22;9284;52.298;21.164;2023-05-29T13:29:43;22.60;67.60
18317;DHT22;9284;52.298;21.164;2023-05-29T13:32:56;22.50;63.60
18317;DHT22;9284;52.298;21.164;2023-05-29T13:35:37;22.60;69.10
18317;DHT22;9284;52.298;21.164;2023-05-29T13:38:26;22.50;62.60
18317;DHT22;9284;52.298;21.164;2023-05-29T13:41:16;22.60;69.70
18317;DHT22;9284;52.298;21.164;2023-05-29T13:43:56;23.00;67.50
18317;DHT22;9284;52.298;21.164;2023-05-29T13:46:29;22.80;70.50
18317;DHT22;9284;52.298;21.164;2023-05-29T13:49:22;22.80;74.30
18317;DHT22;9284;52.298;21.164;2023-05-29T13:52:05;22.80;65.20
18317;DHT22;9284;52.298;21.164;2023-05-29T13:57:42;23.40;75.00
18317;DHT22;9284;52.298;21.164;2023-05-29T14:00:19;23.70;74.40
18317;DHT22;9284;52.298;21.164;2023-05-29T14:03:00;24.00;69.90
18317;DHT22;9284;52.298;21.164;2023-05-29T14:06:02;23.90;67.20
18317;DHT22;9284;52.298;21.164;2023-05-29T14:09:10;23.80;70.80
18317;DHT22;9284;52.298;21.164;2023-05-29T14:11:45;24.10;67.50
18317;DHT22;9284;52.298;21.164;2023-05-29T14:14:35;24.10;68.70
18317;DHT22;9284;52.298;21.164;2023-05-29T14:17:20;24.00;70.70
18317;DHT22;9284;52.298;21.164;2023-05-29T14:23:45;24.00;68.40
18317;DHT22;9284;52.298;21.164;2023-05-29T14:26:52;24.40;71.50
18317;DHT22;9284;52.298;21.164;2023-05-29T14:29:49;24.40;69.50
18317;DHT22;9284;52.298;21.164;2023-05-29T14:32:56;24.50;70.10
18317;DHT22;9284;52.298;21.164;2023-05-29T14:35:52;24.60;73.10
18317;DHT22;9284;52.298;21.164;2023-05-29T14:38:34;24.60;66.80
18317;DHT22;9284;52.298;21.164;2023-05-29T14:41:30;24.50;66.60
18317;DHT22;9284;52.298;21.164;2023-05-29T14:44:23;24.40;87.10
18317;DHT22;9284;52.298;21.164;2023-05-29T14:47:04;24.40;60.00
18317;DHT22;9284;52.298;21.164;2023-05-29T14:49:54;24.20;65.00
18317;DHT22;9284;52.298;21.164;2023-05-29T14:52:48;24.30;63.90
18317;DHT22;9284;52.298;21.164;2023-05-29T14:55:25;24.30;66.10
18317;DHT22;9284;52.298;21.164;2023-05-29T14:58:23;24.30;60.30
18317;DHT22;9284;52.298;21.164;2023-05-29T15:01:08;24.20;59.70
18317;DHT22;9284;52.298;21.164;2023-05-29T15:04:02;24.00;60.90
18317;DHT22;9284;52.298;21.164;2023-05-29T15:07:01;24.00;59.20
18317;DHT22;9284;52.298;21.164;2023-05-29T15:10:11;23.80;62.00
18317;DHT22;9284;52.298;21.164;2023-05-29T15:13:40;23.80;62.90
18317;DHT22;9284;52.298;21.164;2023-05-29T15:16:14;23.90;58.30
18317;DHT22;9284;52.298;21.164;2023-05-29T15:18:53;23.90;65.20
18317;DHT22;9284;52.298;21.164;2023-05-29T15:21:27;23.80;63.60
18317;DHT22;9284;52.298;21.164;2023-05-29T15:24:19;23.70;59.70
18317;DHT22;9284;52.298;21.164;2023-05-29T15:27:04;23.70;59.60
18317;DHT22;9284;52.298;21.164;2023-05-29T15:29:42;23.60;63.00
18317;DHT22;9284;52.298;21.164;2023-05-29T15:33:52;23.50;60.00
18317;DHT22;9284;52.298;21.164;2023-05-29T15:35:36;23.40;59.40
18317;DHT22;9284;52.298;21.164;2023-05-29T15:38:18;23.50;62.80
18317;DHT22;9284;52.298;21.164;2023-05-29T15:40:50;23.30;59.40
18317;DHT22;9284;52.298;21.164;2023-05-29T15:43:47;23.20;58.00
18317;DHT22;9284;52.298;21.164;2023-05-29T15:46:43;23.30;58.90
18317;DHT22;9284;52.298;21.164;2023-05-29T15:49:30;23.20;61.00
18317;DHT22;9284;52.298;21.164;2023-05-29T15:52:00;23.20;62.60
18317;DHT22;9284;52.298;21.164;2023-05-29T15:54:30;23.30;63.00
18317;DHT22;9284;52.298;21.164;2023-05-29T15:57:06;23.10;59.10
18317;DHT22;9284;52.298;21.164;2023-05-29T15:59:41;22.90;59.00
18317;DHT22;9284;52.298;21.164;2023-05-29T16:02:38;22.70;57.60
18317;DHT22;9284;52.298;21.164;2023-05-29T16:05:14;22.50;61.10
18317;DHT22;9284;52.298;21.164;2023-05-29T16:08:09;22.40;56.10
18317;DHT22;9284;52.298;21.164;2023-05-29T16:10:46;22.20;55.90
18317;DHT22;9284;52.298;21.164;2023-05-29T16:13:20;22.20;58.90
18317;DHT22;9284;52.298;21.164;2023-05-29T16:16:05;22.20;54.50
18317;DHT22;9284;52.298;21.164;2023-05-29T16:18:53;22.20;58.30
18317;DHT22;9284;52.298;21.164;2023-05-29T16:21:24;22.20;55.50
18317;DHT22;9284;52.298;21.164;2023-05-29T16:24:03;22.20;56.80
18317;DHT22;9284;52.298;21.164;2023-05-29T16:26:39;22.20;83.00
18317;DHT22;9284;52.298;21.164;2023-05-29T16:29:48;22.20;56.70
18317;DHT22;9284;52.298;21.164;2023-05-29T16:32:22;22.10;57.80
18317;DHT22;9284;52.298;21.164;2023-05-29T16:35:31;22.20;55.40
18317;DHT22;9284;52.298;21.164;2023-05-29T16:38:37;22.20;56.60
18317;DHT22;9284;52.298;21.164;2023-05-29T16:41:29;22.10;53.40
18317;DHT22;9284;52.298;21.164;2023-05-29T16:44:10;22.00;60.00
18317;DHT22;9284;52.298;21.164;2023-05-29T16:46:57;22.00;53.30
18317;DHT22;9284;52.298;21.164;2023-05-29T16:49:43;21.90;56.30
18317;DHT22;9284;52.298;21.164;2023-05-29T16:52:46;21.80;54.90
18317;DHT22;9284;52.298;21.164;2023-05-29T16:55:23;21.80;53.40
18317;DHT22;9284;52.298;21.164;2023-05-29T16:58:10;21.80;55.50
18317;DHT22;9284;52.298;21.164;2023-05-29T17:01:14;21.70;52.60
18317;DHT22;9284;52.298;21.164;2023-05-29T17:04:38;21.70;58.40
18317;DHT22;9284;52.298;21.164;2023-05-29T17:07:38;21.60;55.40
18317;DHT22;9284;52.298;21.164;2023-05-29T17:10:41;21.40;55.90
18317;DHT22;9284;52.298;21.164;2023-05-29T17:13:45;21.80;55.50
18317;DHT22;9284;52.298;21.164;2023-05-29T17:16:25;21.40;57.50
18317;DHT22;9284;52.298;21.164;2023-05-29T17:19:40;21.40;55.10
18317;DHT22;9284;52.298;21.164;2023-05-29T17:22:38;21.30;59.30
18317;DHT22;9284;52.298;21.164;2023-05-29T17:35:39;20.80;64.10
18317;DHT22;9284;52.298;21.164;2023-05-29T17:38:29;20.70;65.50
18317;DHT22;9284;52.298;21.164;2023-05-29T17:43:28;20.50;65.50
18317;DHT22;9284;52.298;21.164;2023-05-29T17:44:48;20.30;56.70
18317;DHT22;9284;52.298;21.164;2023-05-29T18:00:31;19.40;59.30
18317;DHT22;9284;52.298;21.164;2023-05-29T18:04:10;19.10;58.20
18317;DHT22;9284;52.298;21.164;2023-05-29T18:06:48;19.00;59.70
18317;DHT22;9284;52.298;21.164;2023-05-29T18:09:41;18.90;69.90
18317;DHT22;9284;52.298;21.164;2023-05-29T18:12:31;18.80;69.10
18317;DHT22;9284;52.298;21.164;2023-05-29T18:15:42;18.60;76.50
18317;DHT22;9284;52.298;21.164;2023-05-29T18:18:28;18.50;75.00
18317;DHT22;9284;52.298;21.164;2023-05-29T18:21:16;18.40;77.30
18317;DHT22;9284;52.298;21.164;2023-05-29T18:24:14;18.40;78.90
18317;DHT22;9284;52.298;21.164;2023-05-29T18:27:51;18.20;83.40
18317;DHT22;9284;52.298;21.164;2023-05-29T18:30:46;18.20;87.20
18317;DHT22;9284;52.298;21.164;2023-05-29T18:34:05;18.10;89.40
18317;DHT22;9284;52.298;21.164;2023-05-29T18:37:02;18.00;94.70
18317;DHT22;9284;52.298;21.164;2023-05-29T18:40:20;17.90;99.50
18317;DHT22;9284;52.298;21.164;2023-05-29T18:44:06;17.80;95.70
18317;DHT22;9284;52.298;21.164;2023-05-29T18:46:58;18.00;96.20
18317;DHT22;9284;52.298;21.164;2023-05-29T18:49:47;18.20;97.10
18317;DHT22;9284;52.298;21.164;2023-05-29T18:52:43;18.40;99.90
18317;DHT22;9284;52.298;21.164;2023-05-29T18:56:03;18.40;98.40
18317;DHT22;9284;52.298;21.164;2023-05-29T18:59:09;18.40;98.90
18317;DHT22;9284;52.298;21.164;2023-05-29T19:01:58;18.40;99.90
18317;DHT22;9284;52.298;21.164;2023-05-29T19:05:05;18.40;99.90